createdAt,value
2017-06-02T00:00:54.347Z,67.10
2017-06-02T00:03:24.813Z,67.40
2017-06-02T00:05:55.358Z,66.90
2017-06-02T00:08:25.809Z,66.60
2017-06-02T00:10:56.400Z,67.50
2017-06-02T00:13:26.867Z,68.40
2017-06-02T00:15:57.397Z,68.80
2017-06-02T00:18:27.870Z,69.20
2017-06-02T00:20:58.352Z,69.00
2017-06-02T00:23:28.812Z,68.50
2017-06-02T00:25:59.288Z,69.90
2017-06-02T00:28:29.787Z,69.70
2017-06-02T00:31:00.280Z,70.00
2017-06-02T00:33:30.728Z,69.70
2017-06-02T00:36:01.200Z,69.00
2017-06-02T00:38:31.663Z,68.90
2017-06-02T00:41:02.147Z,70.60
2017-06-02T00:43:32.603Z,70.50
2017-06-02T00:46:03.132Z,70.20
2017-06-02T00:48:33.608Z,69.70
2017-06-02T00:51:04.061Z,69.10
2017-06-02T00:53:34.515Z,68.70
2017-06-02T00:56:04.984Z,68.40
2017-06-02T00:58:35.431Z,69.00
2017-06-02T01:01:05.894Z,68.50
2017-06-02T01:03:36.354Z,68.70
2017-06-02T01:06:06.823Z,69.10
2017-06-02T01:08:37.067Z,69.50
2017-06-02T01:11:07.556Z,70.50
2017-06-02T01:13:38.003Z,70.10
2017-06-02T01:16:08.462Z,70.00
2017-06-02T01:18:38.910Z,69.90
2017-06-02T01:21:09.369Z,69.90
2017-06-02T01:23:39.836Z,70.20
2017-06-02T01:26:10.306Z,70.60
2017-06-02T01:28:40.759Z,70.60
2017-06-02T01:31:11.218Z,70.80
2017-06-02T01:33:41.662Z,71.00
2017-06-02T01:36:12.147Z,71.30
2017-06-02T01:38:42.587Z,71.50
2017-06-02T01:41:13.073Z,71.50
2017-06-02T01:43:43.536Z,71.50
2017-06-02T01:46:13.990Z,71.60
2017-06-02T01:48:43.909Z,72.00
2017-06-02T01:51:14.055Z,72.30
2017-06-02T01:53:44.528Z,73.70
2017-06-02T01:56:14.997Z,72.90
2017-06-02T01:58:45.462Z,72.90
2017-06-02T02:01:15.960Z,72.90
2017-06-02T02:03:46.406Z,73.10
2017-06-02T02:06:16.871Z,72.90
2017-06-02T02:08:47.330Z,73.30
2017-06-02T02:11:17.786Z,73.60
2017-06-02T02:13:48.235Z,74.10
2017-06-02T02:16:18.754Z,73.70
2017-06-02T02:18:49.208Z,73.70
2017-06-02T02:21:19.683Z,73.60
2017-06-02T02:23:50.130Z,73.80
2017-06-02T02:26:20.603Z,74.30
2017-06-02T02:28:51.050Z,73.50
2017-06-02T02:31:21.511Z,73.90
2017-06-02T02:33:51.974Z,75.20
2017-06-02T02:36:22.444Z,74.70
2017-06-02T02:38:52.894Z,74.10
2017-06-02T02:41:23.380Z,74.30
2017-06-02T02:43:53.836Z,74.00
2017-06-02T02:46:24.302Z,74.40
2017-06-02T02:48:54.885Z,74.90
2017-06-02T02:51:25.360Z,75.20
2017-06-02T02:53:55.811Z,74.70
2017-06-02T02:56:26.275Z,75.20
2017-06-02T02:58:56.724Z,75.30
2017-06-02T03:01:27.195Z,75.60
2017-06-02T03:03:57.630Z,76.80
2017-06-02T03:06:28.094Z,77.90
2017-06-02T03:08:58.578Z,77.40
2017-06-02T03:11:29.068Z,77.70
2017-06-02T03:13:59.188Z,77.10
2017-06-02T03:16:29.653Z,77.80
2017-06-02T03:19:00.115Z,78.30
2017-06-02T03:21:30.562Z,78.20
2017-06-02T03:24:01.029Z,78.80
2017-06-02T03:26:31.460Z,78.90
2017-06-02T03:29:01.923Z,78.30
2017-06-02T03:31:32.379Z,77.80
2017-06-02T03:34:02.881Z,77.80
2017-06-02T03:36:33.322Z,77.70
2017-06-02T03:39:03.448Z,78.00
2017-06-02T03:41:33.892Z,77.00
2017-06-02T03:44:04.363Z,76.40
2017-06-02T03:46:34.842Z,76.00
2017-06-02T03:49:05.313Z,76.70
2017-06-02T03:51:35.742Z,77.00
2017-06-02T03:54:06.230Z,76.50
2017-06-02T03:56:36.689Z,76.30
2017-06-02T03:59:07.172Z,76.80
2017-06-02T04:01:37.620Z,76.50
2017-06-02T04:04:08.086Z,77.40
2017-06-02T04:06:38.568Z,76.40
2017-06-02T04:09:09.052Z,75.10
2017-06-02T04:11:39.531Z,74.90
2017-06-02T04:14:10.019Z,74.80
2017-06-02T04:16:40.516Z,73.80
2017-06-02T04:19:11.018Z,73.50
2017-06-02T04:21:41.479Z,73.10
2017-06-02T04:24:11.974Z,72.20
2017-06-02T04:26:42.435Z,72.50
2017-06-02T04:29:12.917Z,72.30
2017-06-02T04:31:43.389Z,72.00
2017-06-02T04:34:13.871Z,70.80
2017-06-02T04:36:44.462Z,69.80
2017-06-02T04:39:14.970Z,69.90
2017-06-02T04:41:45.444Z,70.00
2017-06-02T04:44:15.987Z,69.60
2017-06-02T04:46:46.470Z,68.70
2017-06-02T04:49:16.976Z,69.20
2017-06-02T04:51:47.443Z,68.80
2017-06-02T04:54:17.919Z,69.00
2017-06-02T04:56:48.392Z,67.80
2017-06-02T04:59:18.875Z,68.60
2017-06-02T05:01:49.347Z,67.90
2017-06-02T05:04:19.852Z,67.40
2017-06-02T05:06:50.322Z,67.20
2017-06-02T05:09:20.788Z,66.80
2017-06-02T05:11:51.272Z,66.10
2017-06-02T05:14:21.767Z,67.60
2017-06-02T05:16:52.243Z,66.50
2017-06-02T05:19:22.717Z,66.20
2017-06-02T05:21:53.182Z,65.70
2017-06-02T05:24:23.679Z,66.00
2017-06-02T05:26:54.141Z,65.20
2017-06-02T05:29:24.611Z,65.50
2017-06-02T05:31:55.087Z,64.50
2017-06-02T05:34:25.574Z,64.30
2017-06-02T05:36:56.033Z,63.90
2017-06-02T05:39:26.525Z,61.30
2017-06-02T05:41:56.991Z,59.10
2017-06-02T05:44:27.468Z,57.80
2017-06-02T05:46:57.927Z,55.50
2017-06-02T05:49:28.168Z,54.40
2017-06-02T05:51:58.355Z,52.50
2017-06-02T05:54:28.606Z,52.90
2017-06-02T05:56:58.801Z,52.30
2017-06-02T05:59:29.015Z,51.50
2017-06-02T06:01:59.054Z,51.20
2017-06-02T06:04:29.066Z,51.70
2017-06-02T06:06:59.263Z,51.10
2017-06-02T06:09:29.524Z,47.80
2017-06-02T06:11:59.736Z,47.50
2017-06-02T06:14:29.978Z,48.20
2017-06-02T06:17:00.223Z,48.70
2017-06-02T06:19:30.442Z,48.60
2017-06-02T06:22:00.634Z,49.00
2017-06-02T06:24:30.901Z,48.40
2017-06-02T06:27:01.079Z,47.50
2017-06-02T06:29:31.279Z,46.60
2017-06-02T06:32:01.498Z,46.20
2017-06-02T06:34:31.703Z,45.70
2017-06-02T06:37:01.128Z,45.70
2017-06-02T06:39:31.336Z,46.20
2017-06-02T06:42:01.541Z,46.40
2017-06-02T06:44:31.742Z,46.00
2017-06-02T06:47:01.916Z,44.80
2017-06-02T06:49:32.112Z,44.70
2017-06-02T06:52:02.325Z,45.60
2017-06-02T06:54:32.606Z,45.30
2017-06-02T06:57:02.771Z,46.40
2017-06-02T06:59:32.978Z,46.20
2017-06-02T07:02:03.192Z,45.20
2017-06-02T07:04:33.388Z,44.80
2017-06-02T07:07:03.609Z,43.90
2017-06-02T07:09:33.777Z,43.20
2017-06-02T07:12:03.980Z,42.60
2017-06-02T07:14:34.262Z,42.40
2017-06-02T07:17:04.443Z,39.90
2017-06-02T07:19:34.640Z,40.10
2017-06-02T07:22:04.840Z,41.20
2017-06-02T07:24:35.015Z,40.00
2017-06-02T07:27:05.226Z,39.90
2017-06-02T07:29:35.414Z,39.40
2017-06-02T07:32:05.607Z,37.60
2017-06-02T07:34:35.814Z,36.40
2017-06-02T07:37:07.251Z,36.10
2017-06-02T07:39:37.448Z,35.60
2017-06-02T07:42:07.660Z,35.90
2017-06-02T07:44:37.823Z,35.90
2017-06-02T07:47:08.031Z,35.40
2017-06-02T07:49:38.219Z,35.30
2017-06-02T07:52:08.411Z,34.70
2017-06-02T07:54:38.663Z,34.80
2017-06-02T07:57:08.872Z,34.00
2017-06-02T07:59:39.054Z,34.10
2017-06-02T08:02:09.261Z,33.70
2017-06-02T08:04:39.449Z,32.70
2017-06-02T08:07:09.656Z,33.00
2017-06-02T08:09:39.825Z,33.20
2017-06-02T08:12:10.043Z,32.50
2017-06-02T08:14:40.231Z,32.50
2017-06-02T08:17:10.486Z,30.20
2017-06-02T08:19:40.703Z,30.20
2017-06-02T08:22:11.008Z,30.00
2017-06-02T08:24:41.368Z,29.80
2017-06-02T08:27:11.814Z,29.60
2017-06-02T08:29:42.273Z,28.80
2017-06-02T08:32:12.890Z,28.50
2017-06-02T08:34:43.426Z,28.40
2017-06-02T08:37:13.723Z,28.60
2017-06-02T08:39:44.116Z,27.80
2017-06-02T08:42:14.493Z,27.90
2017-06-02T08:44:44.718Z,28.00
2017-06-02T08:47:14.884Z,28.10
2017-06-02T08:49:45.672Z,27.90
2017-06-02T08:52:15.850Z,27.00
2017-06-02T08:54:46.075Z,26.40
2017-06-02T08:57:16.360Z,26.20
2017-06-02T08:59:46.735Z,25.10
2017-06-02T09:02:16.983Z,25.50
2017-06-02T09:04:47.522Z,25.10
2017-06-02T09:07:17.723Z,25.20
2017-06-02T09:09:47.930Z,25.00
2017-06-02T09:12:18.196Z,25.10
2017-06-02T09:14:48.394Z,25.50
2017-06-02T09:17:18.600Z,26.20
2017-06-02T09:19:48.791Z,25.10
2017-06-02T09:22:18.999Z,23.90
2017-06-02T09:24:49.243Z,24.40
2017-06-02T09:27:19.427Z,23.40
2017-06-02T09:29:49.623Z,23.30
2017-06-02T09:32:19.860Z,22.70
2017-06-02T09:34:50.043Z,22.30
2017-06-02T09:37:20.264Z,21.60
2017-06-02T09:39:50.449Z,19.70
2017-06-02T09:42:20.645Z,20.60
2017-06-02T09:44:50.832Z,21.10
2017-06-02T09:47:21.034Z,21.20
2017-06-02T09:49:51.212Z,20.80
2017-06-02T09:52:26.656Z,20.10
2017-06-02T09:54:56.845Z,21.50
2017-06-02T09:57:27.052Z,21.50
2017-06-02T09:59:57.229Z,21.40
2017-06-02T10:02:27.415Z,21.50
2017-06-02T10:04:57.608Z,18.70
2017-06-02T10:07:27.812Z,18.00
2017-06-02T10:09:57.979Z,18.80
2017-06-02T10:12:28.183Z,19.00
2017-06-02T10:14:58.371Z,18.10
2017-06-02T10:17:28.574Z,18.30
2017-06-02T10:19:58.734Z,19.60
2017-06-02T10:22:28.937Z,19.40
2017-06-02T10:24:59.141Z,19.40
2017-06-02T10:27:29.331Z,19.00
2017-06-02T10:29:59.527Z,18.20
2017-06-02T10:32:29.721Z,17.40
2017-06-02T10:34:59.914Z,17.10
2017-06-02T10:37:30.118Z,17.60
2017-06-02T10:40:00.307Z,17.30
2017-06-02T10:42:30.551Z,17.10
2017-06-02T10:45:00.803Z,17.10
2017-06-02T10:47:31.060Z,17.40
2017-06-02T10:50:01.265Z,18.20
2017-06-02T10:52:31.484Z,17.90
2017-06-02T10:55:01.683Z,17.20
2017-06-02T10:57:31.889Z,14.00
2017-06-02T11:00:02.074Z,13.70
2017-06-02T11:02:32.271Z,14.60
2017-06-02T11:05:02.487Z,15.80
2017-06-02T11:07:32.654Z,16.50
2017-06-02T11:10:02.871Z,16.20
2017-06-02T11:12:33.052Z,15.10
2017-06-02T11:15:03.270Z,14.20
2017-06-02T11:17:33.459Z,14.30
2017-06-02T11:20:03.674Z,14.50
2017-06-02T11:22:33.848Z,15.00
2017-06-02T11:25:04.045Z,13.80
2017-06-02T11:27:34.224Z,12.90
2017-06-02T11:30:04.436Z,12.30
2017-06-02T11:32:34.602Z,14.50
2017-06-02T11:35:04.801Z,14.00
2017-06-02T11:37:34.988Z,13.70
2017-06-02T11:40:05.303Z,13.30
2017-06-02T11:42:35.466Z,13.80
2017-06-02T11:45:05.662Z,12.40
2017-06-02T11:47:35.840Z,12.50
2017-06-02T11:50:06.065Z,11.60
2017-06-02T11:52:36.314Z,12.50
2017-06-02T11:55:06.502Z,12.20
2017-06-02T11:57:36.712Z,13.30
2017-06-02T12:00:06.531Z,13.80
2017-06-02T12:02:36.532Z,13.90
2017-06-02T12:05:06.720Z,14.20
2017-06-02T12:07:36.928Z,13.30
2017-06-02T12:10:06.755Z,11.80
2017-06-02T12:12:36.283Z,12.10
2017-06-02T12:15:06.469Z,11.40
2017-06-02T12:17:36.651Z,11.20
2017-06-02T12:20:06.829Z,11.00
2017-06-02T12:22:37.042Z,11.80
2017-06-02T12:25:07.319Z,11.40
2017-06-02T12:27:37.508Z,10.80
2017-06-02T12:30:07.683Z,11.50
2017-06-02T12:32:37.900Z,10.60
2017-06-02T12:35:08.103Z,12.70
2017-06-02T12:37:38.298Z,12.40
2017-06-02T12:40:08.484Z,12.10
2017-06-02T12:42:38.686Z,12.60
2017-06-02T12:45:08.844Z,12.20
2017-06-02T12:47:39.116Z,12.80
2017-06-02T12:50:09.394Z,12.80
2017-06-02T12:52:39.605Z,12.90
2017-06-02T12:55:09.797Z,13.10
2017-06-02T12:57:39.970Z,12.40
2017-06-02T13:00:11.247Z,12.40
2017-06-02T13:02:42.414Z,12.30
2017-06-02T13:05:12.623Z,11.80
2017-06-02T13:07:42.816Z,11.90
2017-06-02T13:10:13.032Z,12.50
2017-06-02T13:12:43.208Z,11.40
2017-06-02T13:15:13.404Z,11.40
2017-06-02T13:17:43.603Z,12.00
2017-06-02T13:20:13.794Z,11.00
2017-06-02T13:22:43.963Z,10.90
2017-06-02T13:25:14.172Z,10.80
2017-06-02T13:27:44.687Z,11.30
2017-06-02T13:30:14.911Z,10.70
2017-06-02T13:32:45.084Z,10.60
2017-06-02T13:35:15.284Z,9.90
2017-06-02T13:37:45.463Z,10.20
2017-06-02T13:40:15.651Z,10.30
2017-06-02T13:42:45.838Z,10.50
2017-06-02T13:45:16.043Z,9.00
2017-06-02T13:47:46.215Z,8.60
2017-06-02T13:50:16.418Z,9.50
2017-06-02T13:52:46.583Z,9.50
2017-06-02T13:55:16.781Z,9.70
2017-06-02T13:57:46.962Z,8.10
2017-06-02T14:00:17.151Z,8.30
2017-06-02T14:02:47.348Z,7.40
2017-06-02T14:05:17.614Z,7.90
2017-06-02T14:07:47.776Z,7.80
2017-06-02T14:10:17.981Z,8.50
2017-06-02T14:12:48.143Z,8.50
2017-06-02T14:15:18.337Z,8.10
2017-06-02T14:17:48.535Z,9.20
2017-06-02T14:20:18.712Z,9.80
2017-06-02T14:22:48.938Z,9.70
2017-06-02T14:25:19.106Z,10.30
2017-06-02T14:27:49.303Z,11.50
2017-06-02T14:30:19.505Z,11.20
2017-06-02T14:32:49.719Z,11.40
2017-06-02T14:35:19.903Z,11.80
2017-06-02T14:37:50.116Z,12.10
2017-06-02T14:40:20.396Z,13.40
2017-06-02T14:42:50.617Z,12.90
2017-06-02T14:45:20.787Z,12.20
2017-06-02T14:47:51.006Z,12.60
2017-06-02T14:50:21.180Z,12.70
2017-06-02T14:52:51.363Z,12.30
2017-06-02T14:55:21.595Z,13.50
2017-06-02T14:57:51.785Z,12.90
2017-06-02T15:00:21.995Z,13.30
2017-06-02T15:02:51.976Z,12.60
2017-06-02T15:05:22.191Z,13.40
2017-06-02T15:07:52.376Z,12.30
2017-06-02T15:10:22.567Z,12.50
2017-06-02T15:12:52.758Z,13.10
2017-06-02T15:15:22.955Z,12.60
2017-06-02T15:17:53.142Z,13.50
2017-06-02T15:20:23.354Z,13.90
2017-06-02T15:22:53.546Z,12.70
2017-06-02T15:25:23.731Z,11.60
2017-06-02T15:27:53.919Z,11.80
2017-06-02T15:30:24.155Z,13.10
2017-06-02T15:32:54.331Z,12.70
2017-06-02T15:35:24.543Z,13.20
2017-06-02T15:37:54.387Z,14.40
2017-06-02T15:40:24.595Z,15.20
2017-06-02T15:42:54.810Z,14.70
2017-06-02T15:45:25.000Z,14.60
2017-06-02T15:47:55.200Z,15.20
2017-06-02T15:50:25.398Z,15.00
2017-06-02T15:52:55.592Z,15.60
2017-06-02T15:55:25.780Z,15.50
2017-06-02T15:57:55.982Z,15.90
2017-06-02T16:00:26.166Z,16.10
2017-06-02T16:02:56.374Z,16.70
2017-06-02T16:05:26.564Z,16.50
2017-06-02T16:07:56.760Z,17.60
2017-06-02T16:10:26.951Z,16.80
2017-06-02T16:12:57.127Z,16.00
2017-06-02T16:15:27.335Z,16.40
2017-06-02T16:17:57.536Z,16.60
2017-06-02T16:20:27.731Z,16.00
2017-06-02T16:22:57.928Z,16.20
2017-06-02T16:25:28.128Z,16.70
2017-06-02T16:27:58.299Z,17.70
2017-06-02T16:30:28.503Z,19.00
2017-06-02T16:32:58.675Z,19.00
2017-06-02T16:35:28.872Z,20.20
2017-06-02T16:37:59.038Z,20.60
2017-06-02T16:40:29.270Z,20.80
2017-06-02T16:42:59.437Z,20.90
2017-06-02T16:45:29.644Z,21.40
2017-06-02T16:47:59.830Z,21.20
2017-06-02T16:50:30.029Z,21.80
2017-06-02T16:53:00.200Z,21.40
2017-06-02T16:55:30.407Z,21.80
2017-06-02T16:58:00.612Z,21.70
2017-06-02T17:00:30.788Z,21.60
2017-06-02T17:03:00.997Z,21.70
2017-06-02T17:05:31.212Z,22.20
2017-06-02T17:08:01.407Z,22.30
2017-06-02T17:10:31.587Z,21.70
2017-06-02T17:13:01.805Z,22.00
2017-06-02T17:15:31.979Z,22.90
2017-06-02T17:18:02.176Z,22.70
2017-06-02T17:20:32.380Z,23.20
2017-06-02T17:23:02.609Z,23.00
2017-06-02T17:25:32.779Z,23.00
2017-06-02T17:28:02.984Z,24.60
2017-06-02T17:30:33.324Z,24.80
2017-06-02T17:33:03.529Z,25.00
2017-06-02T17:35:33.722Z,25.50
2017-06-02T17:38:03.971Z,25.30
2017-06-02T17:40:34.176Z,25.80
2017-06-02T17:43:04.387Z,26.00
2017-06-02T17:45:34.562Z,27.10
2017-06-02T17:48:04.760Z,28.00
2017-06-02T17:50:34.980Z,29.00
2017-06-02T17:53:05.212Z,30.00
2017-06-02T17:55:35.533Z,31.10
2017-06-02T17:58:05.793Z,31.40
2017-06-02T18:00:35.698Z,32.40
2017-06-02T18:03:07.009Z,33.00
2017-06-02T18:05:39.668Z,33.50
2017-06-02T18:08:10.713Z,33.70
2017-06-02T18:10:41.012Z,34.10
2017-06-02T18:13:11.203Z,34.10
2017-06-02T18:15:41.420Z,34.20
2017-06-02T18:18:11.606Z,34.40
2017-06-02T18:20:41.818Z,34.50
2017-06-02T18:23:12.067Z,34.60
2017-06-02T18:25:42.266Z,34.90
2017-06-02T18:28:12.476Z,35.10
2017-06-02T18:30:42.675Z,34.90
2017-06-02T18:33:12.892Z,35.10
2017-06-02T18:35:43.089Z,35.60
2017-06-02T18:38:13.412Z,35.90
2017-06-02T18:40:43.611Z,36.20
2017-06-02T18:43:13.827Z,36.80
2017-06-02T18:45:44.004Z,38.00
2017-06-02T18:48:14.204Z,38.00
2017-06-02T18:50:44.388Z,38.30
2017-06-02T18:53:14.606Z,38.70
2017-06-02T18:55:44.800Z,39.20
2017-06-02T18:58:15.019Z,39.60
2017-06-02T19:00:45.191Z,39.60
2017-06-02T19:03:15.393Z,39.90
2017-06-02T19:05:45.612Z,40.50
2017-06-02T19:08:15.804Z,41.10
2017-06-02T19:10:45.826Z,41.40
2017-06-02T19:13:16.185Z,41.40
2017-06-02T19:15:46.398Z,42.20
2017-06-02T19:18:16.586Z,41.60
2017-06-02T19:20:46.588Z,41.90
2017-06-02T19:23:18.120Z,42.90
2017-06-02T19:25:49.872Z,42.20
2017-06-02T19:28:20.050Z,42.50
2017-06-02T19:30:50.056Z,43.10
2017-06-02T19:33:20.242Z,43.80
2017-06-02T19:35:50.453Z,44.10
2017-06-02T19:38:20.637Z,44.60
2017-06-02T19:40:52.123Z,44.00
2017-06-02T19:43:22.310Z,44.30
2017-06-02T19:45:52.518Z,44.20
2017-06-02T19:48:22.711Z,44.60
2017-06-02T19:50:52.904Z,44.90
2017-06-02T19:53:23.081Z,45.10
2017-06-02T19:55:53.284Z,45.60
2017-06-02T19:58:23.194Z,45.80
2017-06-02T20:00:53.384Z,46.10
2017-06-02T20:03:23.586Z,46.40
2017-06-02T20:05:53.770Z,46.60
2017-06-02T20:08:23.966Z,47.00
2017-06-02T20:10:54.154Z,47.40
2017-06-02T20:13:24.376Z,48.00
2017-06-02T20:15:54.575Z,48.40
2017-06-02T20:18:24.866Z,49.20
2017-06-02T20:20:55.044Z,48.70
2017-06-02T20:23:25.256Z,49.10
2017-06-02T20:25:55.522Z,49.30
2017-06-02T20:28:25.757Z,49.60
2017-06-02T20:30:55.943Z,49.70
2017-06-02T20:33:26.420Z,49.80
2017-06-02T20:35:56.604Z,50.50
2017-06-02T20:38:26.803Z,50.00
2017-06-02T20:40:56.987Z,50.20
2017-06-02T20:43:27.177Z,50.20
2017-06-02T20:45:57.375Z,50.30
2017-06-02T20:48:27.562Z,49.60
2017-06-02T20:50:57.777Z,50.10
2017-06-02T20:53:27.962Z,49.30
2017-06-02T20:55:58.439Z,49.50
2017-06-02T20:58:29.240Z,50.00
2017-06-02T21:01:00.135Z,49.70
2017-06-02T21:03:32.748Z,49.60
2017-06-02T21:06:03.516Z,49.80
2017-06-02T21:08:34.014Z,49.40
2017-06-02T21:11:04.471Z,49.20
2017-06-02T21:13:34.955Z,48.70
2017-06-02T21:16:05.432Z,48.70
2017-06-02T21:18:35.914Z,47.80
2017-06-02T21:21:06.206Z,48.00
2017-06-02T21:23:36.671Z,47.20
2017-06-02T21:26:07.188Z,47.70
2017-06-02T21:28:37.706Z,47.30
2017-06-02T21:31:08.247Z,46.90
2017-06-02T21:33:38.708Z,47.00
2017-06-02T21:36:09.237Z,47.40
2017-06-02T21:38:39.773Z,47.10
2017-06-02T21:41:10.389Z,47.10
2017-06-02T21:43:41.258Z,45.90
2017-06-02T21:46:13.175Z,45.70
2017-06-02T21:48:43.840Z,46.30
2017-06-02T21:51:14.310Z,45.00
2017-06-02T21:53:44.782Z,45.30
2017-06-02T21:56:15.264Z,45.80
2017-06-02T21:58:45.737Z,45.50
2017-06-02T22:01:16.424Z,45.70
2017-06-02T22:03:47.420Z,46.20
2017-06-02T22:06:17.893Z,46.00
2017-06-02T22:08:48.366Z,45.90
2017-06-02T22:11:18.820Z,46.40
2017-06-02T22:13:49.380Z,46.20
2017-06-02T22:16:19.898Z,46.40
2017-06-02T22:18:50.501Z,46.60
2017-06-02T22:21:20.950Z,46.70
2017-06-02T22:23:51.406Z,47.30
2017-06-02T22:26:21.855Z,46.90
2017-06-02T22:28:52.352Z,46.80
2017-06-02T22:31:22.819Z,47.50
2017-06-02T22:33:53.295Z,47.40
2017-06-02T22:36:23.733Z,47.60
2017-06-02T22:38:54.208Z,47.50
2017-06-02T22:41:24.693Z,48.00
2017-06-02T22:43:55.176Z,47.60
2017-06-02T22:46:25.634Z,48.10
2017-06-02T22:48:56.094Z,48.20
2017-06-02T22:51:26.565Z,48.30
2017-06-02T22:53:57.018Z,48.30
2017-06-02T22:56:27.484Z,48.60
2017-06-02T22:58:57.944Z,48.50
2017-06-02T23:01:28.411Z,48.30
2017-06-02T23:03:58.876Z,48.70
2017-06-02T23:06:29.328Z,49.10
2017-06-02T23:08:59.844Z,49.20
2017-06-02T23:11:30.547Z,49.00
2017-06-02T23:14:01.026Z,49.00
2017-06-02T23:16:31.477Z,49.90
2017-06-02T23:19:01.771Z,49.30
2017-06-02T23:21:32.208Z,49.10
2017-06-02T23:24:02.680Z,49.70
2017-06-02T23:26:33.122Z,50.00
2017-06-02T23:29:03.608Z,50.30
2017-06-02T23:31:34.082Z,50.10
2017-06-02T23:34:04.554Z,50.20
2017-06-02T23:36:35.004Z,50.20
2017-06-02T23:39:05.151Z,50.70
2017-06-02T23:41:35.673Z,50.80
2017-06-02T23:44:06.151Z,51.90
2017-06-02T23:46:36.628Z,51.80
2017-06-02T23:49:07.098Z,51.80
2017-06-02T23:51:37.555Z,51.80
2017-06-02T23:54:08.268Z,52.10
2017-06-02T23:56:38.716Z,52.60
2017-06-02T23:59:09.184Z,52.80
